Time;durP1;ratioP1;P1;durP2;ratioP2;P2;SDS_P1;SDS_P2;PMS_P1;PMS_P2;Temp;Humidity;BMP_temperature;BMP_pressure;BME280_temperature;BME280_humidity;BME280_pressure;Samples;Min_cycle;Max_cycle;Signal;HPM_P1;HPM_P2
2022/05/03 00:01:23;;;;;;;10.40;9.32;;;;;;;11.40;60.91;100476.56;5092662;28;20226;-60
2022/05/03 00:04:00;;;;;;;11.75;9.60;;;;;;;11.35;60.75;100480.31;5091744;28;20055;-58
2022/05/03 00:06:31;;;;;;;11.65;10.13;;;;;;;11.30;61.15;100484.09;5092966;28;20054;-60
2022/05/03 00:09:04;;;;;;;11.10;10.00;;;;;;;11.28;61.32;100477.19;5091427;28;20044;-59
2022/05/03 00:11:34;;;;;;;12.27;10.15;;;;;;;11.23;61.64;100477.31;5083458;28;20058;-60
2022/05/03 00:14:06;;;;;;;;;;;;;;;11.14;62.00;100478.06;5094110;28;20059;-60
2022/05/03 00:16:35;;;;;;;10.75;9.63;;;;;;;11.08;61.65;100478.53;5093035;28;19924;-60
2022/05/03 00:19:06;;;;;;;13.27;11.32;;;;;;;11.05;61.86;100479.16;5093486;28;20402;-60
2022/05/03 00:21:35;;;;;;;12.80;10.30;;;;;;;10.99;62.03;100475.69;5093322;28;20055;-60
2022/05/03 00:24:03;;;;;;;12.70;10.35;;;;;;;10.96;61.83;100477.16;5092936;28;20199;-59
2022/05/03 00:26:31;;;;;;;12.23;10.55;;;;;;;10.94;61.92;100479.41;5092522;28;20052;-57
2022/05/03 00:29:00;;;;;;;11.73;9.90;;;;;;;10.91;61.76;100479.22;5090188;28;20055;-60
2022/05/03 00:31:29;;;;;;;11.15;9.70;;;;;;;10.86;61.78;100477.38;5092901;28;20056;-59
2022/05/03 00:33:57;;;;;;;12.07;9.15;;;;;;;10.80;62.18;100475.88;5093085;28;20492;-60
2022/05/03 00:36:26;;;;;;;11.07;9.80;;;;;;;10.74;62.42;100468.78;5092917;28;20059;-58
2022/05/03 00:38:53;;;;;;;13.55;10.77;;;;;;;10.71;62.44;100475.00;5092418;28;20048;-60
2022/05/03 00:41:30;;;;;;;12.55;10.75;;;;;;;10.66;62.80;100470.34;5092531;28;20060;-60
2022/05/03 00:44:04;;;;;;;12.13;9.93;;;;;;;10.62;62.66;100468.50;5093167;28;20064;-59
2022/05/03 00:46:42;;;;;;;11.70;10.50;;;;;;;10.56;62.61;100463.06;5093103;28;20063;-60
2022/05/03 00:49:20;;;;;;;12.55;10.77;;;;;;;10.49;62.90;100459.06;5093031;28;20052;-60
2022/05/03 00:52:04;;;;;;;12.82;10.82;;;;;;;10.42;63.14;100462.28;5078377;28;20044;-60
2022/05/03 00:54:46;;;;;;;14.02;11.60;;;;;;;10.36;63.71;100464.34;5092312;28;20055;-60
2022/05/03 00:57:23;;;;;;;11.85;10.43;;;;;;;10.32;63.42;100462.50;5091463;28;20063;-60
2022/05/03 01:00:14;;;;;;;12.80;11.50;;;;;;;10.28;63.62;100467.03;5092742;28;20044;-59
2022/05/03 01:03:10;;;;;;;11.00;9.75;;;;;;;10.23;63.87;100467.16;5092561;28;20048;-60
2022/05/03 01:05:52;;;;;;;12.20;10.90;;;;;;;10.21;63.79;100464.66;5093007;28;20392;-60
2022/05/03 01:08:34;;;;;;;12.27;10.68;;;;;;;10.16;64.01;100464.75;5092760;28;20480;-59
2022/05/03 01:11:19;;;;;;;12.20;11.00;;;;;;;10.15;64.19;100463.94;5092455;28;20059;-60
2022/05/03 01:13:53;;;;;;;11.32;9.73;;;;;;;10.10;64.50;100460.44;5087010;28;20404;-60
2022/05/03 01:16:34;;;;;;;11.98;9.93;;;;;;;10.02;64.53;100462.03;5071787;28;20049;-60
2022/05/03 01:19:22;;;;;;;13.90;10.75;;;;;;;9.94;64.97;100462.75;5082964;28;20598;-60
2022/05/03 01:22:04;;;;;;;12.75;10.90;;;;;;;9.93;65.05;100461.94;5092448;28;20048;-60
2022/05/03 01:24:54;;;;;;;12.45;10.88;;;;;;;9.87;65.45;100463.16;5092137;28;20059;-60
2022/05/03 01:27:46;;;;;;;13.32;11.00;;;;;;;9.84;65.27;100460.16;5092530;28;20412;-60
2022/05/03 01:30:15;;;;;;;11.95;10.70;;;;;;;9.80;65.06;100462.75;5088543;28;20502;-60
2022/05/03 01:32:45;;;;;;;11.23;10.03;;;;;;;9.75;65.11;100460.91;5092128;28;20507;-60
2022/05/03 01:35:13;;;;;;;12.35;11.05;;;;;;;9.68;65.35;100454.94;5090517;28;20044;-59
2022/05/03 01:38:07;;;;;;;13.40;12.02;;;;;;;9.64;65.55;100458.63;5092271;28;20044;-60
2022/05/03 01:40:47;;;;;;;13.25;10.18;;;;;;;9.60;65.17;100460.38;5087321;28;20056;-60
2022/05/03 01:43:26;;;;;;;11.90;10.70;;;;;;;9.57;65.34;100458.22;5091581;28;20518;-60
2022/05/03 01:46:06;;;;;;;13.32;11.35;;;;;;;9.54;65.24;100451.31;5091463;28;20062;-60
2022/05/03 01:51:46;;;;;;;11.95;10.75;;;;;;;9.39;65.91;100448.84;5097166;28;20055;-60
2022/05/03 01:54:34;;;;;;;12.15;10.65;;;;;;;9.33;66.32;100448.09;5091718;28;20416;-60
2022/05/03 01:57:13;;;;;;;12.20;10.93;;;;;;;9.33;65.61;100450.88;5079091;28;20048;-60
2022/05/03 01:59:50;;;;;;;15.05;11.07;;;;;;;9.34;66.11;100452.50;5090813;28;20504;-58
2022/05/03 02:02:27;;;;;;;12.25;10.30;;;;;;;9.31;65.84;100451.19;5091027;28;20048;-60
2022/05/03 02:05:06;;;;;;;11.80;10.57;;;;;;;9.31;65.99;100453.97;5091798;28;20052;-59
2022/05/03 02:07:55;;;;;;;13.50;10.45;;;;;;;9.32;66.08;100458.41;5091771;28;20052;-60
2022/05/03 02:10:46;;;;;;;11.38;10.10;;;;;;;9.31;66.69;100451.19;5091074;28;20052;-60
2022/05/03 02:16:30;;;;;;;10.90;9.75;;;;;;;9.30;65.94;100452.31;5089366;28;20048;-60
2022/05/03 02:19:17;;;;;;;12.48;10.30;;;;;;;9.26;66.39;100442.94;5092274;28;20052;-59
2022/05/03 02:21:52;;;;;;;11.82;10.13;;;;;;;9.22;66.78;100441.91;5090832;28;20043;-56
2022/05/03 02:24:33;;;;;;;13.18;11.13;;;;;;;9.22;65.95;100436.34;5090376;28;20040;-59
2022/05/03 02:27:08;;;;;;;11.63;10.40;;;;;;;9.24;66.41;100445.22;5093144;28;20052;-60
2022/05/03 02:29:46;;;;;;;13.85;11.30;;;;;;;9.26;66.65;100445.72;5095015;28;20052;-61
2022/05/03 02:32:18;;;;;;;13.00;11.60;;;;;;;9.29;66.15;100444.28;5095348;28;20052;-60
2022/05/03 02:34:53;;;;;;;16.00;12.82;;;;;;;9.27;66.24;100447.38;5095915;28;20058;-59
2022/05/03 02:37:24;;;;;;;12.75;11.05;;;;;;;9.25;65.93;100455.19;5089701;28;20059;-61
2022/05/03 02:39:58;;;;;;;13.23;11.93;;;;;;;9.18;66.02;100449.22;5095694;28;20052;-60
2022/05/03 02:42:26;;;;;;;13.02;10.93;;;;;;;9.15;66.41;100452.59;5095011;28;20484;-60
2022/05/03 02:44:56;;;;;;;11.38;9.85;;;;;;;9.15;65.74;100447.03;5095294;28;20055;-59
2022/05/03 02:47:35;;;;;;;12.18;10.73;;;;;;;9.12;65.96;100442.09;5093782;28;20056;-60
2022/05/03 02:50:10;;;;;;;11.75;10.55;;;;;;;9.08;65.84;100441.06;5095161;28;20122;-61
2022/05/03 02:52:52;;;;;;;12.32;9.98;;;;;;;9.02;66.09;100439.50;5094877;28;20056;-61
2022/05/03 02:55:32;;;;;;;13.02;10.90;;;;;;;8.98;65.95;100444.81;5095562;28;20044;-61
2022/05/03 02:58:11;;;;;;;12.40;10.80;;;;;;;8.91;65.77;100442.44;5095312;28;20488;-61
2022/05/03 03:04:12;;;;;;;13.40;10.23;;;;;;;8.85;66.41;100437.28;5098789;28;20051;-61
2022/05/03 03:06:43;;;;;;;12.07;10.77;;;;;;;8.81;67.15;100434.28;5093769;28;20170;-61
2022/05/03 03:09:28;;;;;;;12.38;10.07;;;;;;;8.80;67.34;100431.81;5094752;28;20051;-61
2022/05/03 03:12:05;;;;;;;13.10;9.55;;;;;;;8.74;67.53;100431.09;5094502;28;20190;-61
2022/05/03 03:14:40;;;;;;;11.73;10.25;;;;;;;8.76;67.15;100434.38;5095076;28;20416;-61
2022/05/03 03:17:09;;;;;;;13.30;10.15;;;;;;;8.69;67.86;100434.78;5093263;28;20059;-61
2022/05/03 03:20:07;;;;;;;12.55;10.27;;;;;;;8.68;68.14;100432.28;5093553;28;20051;-61
2022/05/03 03:22:40;;;;;;;13.65;9.77;;;;;;;8.66;68.17;100427.03;5094345;28;20048;-61
2022/05/03 03:25:09;;;;;;;12.45;10.57;;;;;;;8.66;68.03;100431.78;5095066;28;20040;-61
2022/05/03 03:27:45;;;;;;;12.93;11.45;;;;;;;8.67;67.98;100433.41;5094530;28;20048;-61
2022/05/03 03:30:14;;;;;;;13.18;10.57;;;;;;;8.67;68.36;100425.06;5094974;28;20126;-60
2022/05/03 03:32:47;;;;;;;12.43;10.52;;;;;;;8.68;68.04;100433.09;5092902;28;20126;-60
2022/05/03 03:35:16;;;;;;;12.52;10.68;;;;;;;8.66;68.24;100434.53;5095249;28;20058;-60
2022/05/03 03:37:50;;;;;;;15.07;10.73;;;;;;;8.65;67.71;100433.72;5091565;28;20052;-60
2022/05/03 03:40:18;;;;;;;12.85;10.70;;;;;;;8.64;68.13;100431.25;5094205;28;20047;-60
2022/05/03 03:42:50;;;;;;;15.35;11.93;;;;;;;8.63;67.70;100435.97;5094370;28;20048;-60
2022/05/03 03:45:18;;;;;;;12.52;10.77;;;;;;;8.62;68.31;100436.28;5094551;28;20040;-60
2022/05/03 03:47:47;;;;;;;11.60;10.35;;;;;;;8.63;67.63;100435.97;5093625;28;20051;-60
2022/05/03 03:50:15;;;;;;;14.02;11.10;;;;;;;8.61;67.70;100434.63;5094961;28;20044;-60
2022/05/03 03:52:44;;;;;;;12.25;10.23;;;;;;;8.58;67.40;100443.56;5094432;28;20063;-60
2022/05/03 03:55:16;;;;;;;12.52;10.35;;;;;;;8.56;67.06;100445.81;5093658;28;20458;-60
2022/05/03 03:57:45;;;;;;;13.40;10.48;;;;;;;8.53;66.93;100447.25;5093501;28;20056;-61
2022/05/03 04:00:15;;;;;;;11.88;10.60;;;;;;;8.41;67.11;100444.91;5094449;28;20063;-60
2022/05/03 04:02:43;;;;;;;12.82;11.40;;;;;;;8.34;67.56;100436.13;5080240;28;20048;-61
2022/05/03 04:05:15;;;;;;;12.73;11.43;;;;;;;8.34;67.50;100442.50;5092419;28;20473;-60
2022/05/03 04:07:43;;;;;;;13.38;10.88;;;;;;;8.30;67.45;100449.75;5092891;28;20044;-60
2022/05/03 04:10:13;;;;;;;12.93;10.90;;;;;;;8.27;67.40;100449.53;5092083;28;20052;-61
2022/05/03 04:12:40;;;;;;;13.13;10.68;;;;;;;8.25;67.87;100451.78;5093565;28;20382;-61
2022/05/03 04:15:09;;;;;;;17.45;12.95;;;;;;;8.25;68.14;100457.31;5092846;28;20051;-61
2022/05/03 04:17:36;;;;;;;13.88;11.27;;;;;;;8.25;68.29;100451.78;5091402;28;20056;-61
2022/05/03 04:20:07;;;;;;;12.95;11.20;;;;;;;8.29;68.09;100458.38;5091833;28;20052;-61
2022/05/03 04:22:36;;;;;;;11.55;10.13;;;;;;;8.30;68.04;100462.81;5091345;28;20059;-61
2022/05/03 04:25:05;;;;;;;12.93;11.07;;;;;;;8.31;67.59;100467.22;5093399;28;20040;-61
2022/05/03 04:27:33;;;;;;;11.57;10.37;;;;;;;8.29;67.56;100467.56;5093281;28;20052;-61
2022/05/03 04:30:02;;;;;;;12.35;9.88;;;;;;;8.32;67.41;100474.44;5093375;28;20490;-61
2022/05/03 04:32:30;;;;;;;11.18;9.63;;;;;;;8.34;67.46;100477.75;5092524;28;20047;-61
2022/05/03 04:34:58;;;;;;;11.43;9.63;;;;;;;8.34;67.63;100473.00;5093752;28;20044;-61
2022/05/03 04:37:27;;;;;;;11.38;8.57;;;;;;;8.39;67.05;100468.53;5092188;28;20051;-59
2022/05/03 04:39:55;;;;;;;11.70;10.33;;;;;;;8.45;68.17;100465.41;5092513;28;20157;-61
2022/05/03 04:42:22;;;;;;;12.80;9.63;;;;;;;8.48;68.06;100480.63;5093361;28;20499;-61
2022/05/03 04:44:51;;;;;;;10.65;9.45;;;;;;;8.56;67.61;100473.56;5093429;28;20455;-61
2022/05/03 04:47:19;;;;;;;12.27;9.60;;;;;;;8.65;68.09;100469.81;5091657;28;20066;-61
2022/05/03 04:49:47;;;;;;;10.57;9.32;;;;;;;8.70;67.39;100469.72;5092722;28;20377;-61
2022/05/03 04:52:15;;;;;;;11.38;9.23;;;;;;;8.77;66.94;100469.34;5093109;28;20408;-61
2022/05/03 04:54:42;;;;;;;11.05;8.48;;;;;;;8.89;66.25;100466.94;5093320;28;20048;-61
2022/05/03 04:57:10;;;;;;;8.98;8.07;;;;;;;8.98;66.05;100475.38;5092080;28;20056;-61
2022/05/03 04:59:38;;;;;;;12.32;8.93;;;;;;;9.04;65.54;100473.34;5093062;28;20059;-61
2022/05/03 05:02:06;;;;;;;10.63;9.25;;;;;;;9.07;65.02;100478.28;5092169;28;20405;-61
2022/05/03 05:04:34;;;;;;;11.70;9.73;;;;;;;9.11;65.38;100479.34;5092373;28;20044;-60
2022/05/03 05:07:01;;;;;;;11.23;8.90;;;;;;;9.15;65.03;100480.38;5086998;28;20043;-61
2022/05/03 05:09:28;;;;;;;13.18;9.70;;;;;;;9.22;65.25;100486.38;5092185;28;20055;-61
2022/05/03 05:11:56;;;;;;;11.50;9.00;;;;;;;9.28;65.12;100489.88;5092057;28;20051;-61
2022/05/03 05:14:23;;;;;;;10.30;9.20;;;;;;;9.33;65.13;100487.03;5091838;28;20481;-61
2022/05/03 05:16:51;;;;;;;11.80;9.73;;;;;;;9.33;65.40;100487.84;5091830;28;20044;-61
2022/05/03 05:19:19;;;;;;;11.45;9.73;;;;;;;9.38;65.36;100489.69;5092485;28;20401;-61
2022/05/03 05:21:47;;;;;;;19.48;10.02;;;;;;;9.43;65.60;100494.31;5091892;28;20055;-61
2022/05/03 05:24:15;;;;;;;12.68;10.13;;;;;;;9.50;65.64;100492.00;5091826;28;20476;-61
2022/05/03 05:26:42;;;;;;;10.43;8.60;;;;;;;9.60;64.88;100489.03;5088781;28;20048;-61
2022/05/03 05:29:10;;;;;;;9.93;8.43;;;;;;;9.67;65.01;100486.63;5080119;28;20048;-60
2022/05/03 05:31:37;;;;;;;10.70;8.77;;;;;;;9.71;64.88;100490.47;5090352;28;20052;-60
2022/05/03 05:34:05;;;;;;;11.50;9.07;;;;;;;9.80;64.58;100485.00;5092465;28;20405;-61
2022/05/03 05:36:33;;;;;;;10.40;9.35;;;;;;;9.93;64.48;100494.47;5090266;28;20143;-61
2022/05/03 05:39:01;;;;;;;12.23;9.38;;;;;;;10.03;64.11;100493.44;5092412;28;20054;-61
2022/05/03 05:41:28;;;;;;;12.07;9.68;;;;;;;10.12;63.80;100492.41;5087922;28;20055;-59
2022/05/03 05:43:55;;;;;;;11.13;9.93;;;;;;;10.22;63.64;100487.75;5081254;28;20056;-60
2022/05/03 05:46:22;;;;;;;11.35;10.00;;;;;;;10.36;63.11;100492.19;5092553;28;20043;-60
2022/05/03 05:48:50;;;;;;;12.57;9.70;;;;;;;10.51;63.02;100487.41;5085631;28;20046;-61
2022/05/03 05:51:17;;;;;;;10.55;9.45;;;;;;;10.65;62.58;100496.56;5089601;28;20485;-61
2022/05/03 05:53:45;;;;;;;12.55;10.50;;;;;;;10.79;62.24;100487.31;5090208;28;20055;-60
2022/05/03 05:56:14;;;;;;;11.15;9.40;;;;;;;10.91;62.10;100490.38;5092143;28;20048;-61
2022/05/03 05:58:42;;;;;;;12.57;11.32;;;;;;;11.05;61.52;100490.31;5090467;28;20400;-61
2022/05/03 06:01:10;;;;;;;11.63;9.23;;;;;;;11.18;59.94;100489.41;5091503;28;20122;-60
2022/05/03 06:03:40;;;;;;;9.73;8.63;;;;;;;11.32;58.83;100495.75;5091432;28;20051;-61
2022/05/03 06:06:07;;;;;;;12.50;8.55;;;;;;;11.49;58.76;100505.34;5091739;28;20048;-61
2022/05/03 06:08:34;;;;;;;11.07;9.20;;;;;;;11.58;58.27;100504.25;5094898;28;20052;-61
2022/05/03 06:11:03;;;;;;;11.35;9.23;;;;;;;11.66;58.72;100499.03;5091144;28;20052;-61
2022/05/03 06:13:31;;;;;;;9.38;8.20;;;;;;;11.80;57.61;100505.34;5091600;28;20048;-61
2022/05/03 06:16:07;;;;;;;11.40;8.55;;;;;;;11.93;57.45;100503.63;5091167;28;20059;-61
2022/05/03 06:18:34;;;;;;;10.40;8.15;;;;;;;12.09;56.39;100507.59;5091865;28;20055;-61
2022/05/03 06:21:03;;;;;;;12.18;8.18;;;;;;;12.18;56.49;100502.88;5091157;28;20056;-61
2022/05/03 06:23:31;;;;;;;10.98;7.65;;;;;;;12.27;55.45;100504.88;5091044;28;20475;-61
2022/05/03 06:25:59;;;;;;;10.70;7.32;;;;;;;12.46;55.27;100505.38;5091582;28;20059;-61
2022/05/03 06:28:28;;;;;;;8.52;6.35;;;;;;;12.60;53.92;100499.66;5091605;28;20476;-61
2022/05/03 06:30:55;;;;;;;6.43;5.60;;;;;;;12.63;53.04;100501.78;5091240;28;20058;-61
2022/05/03 06:33:22;;;;;;;8.15;5.82;;;;;;;12.78;51.92;100495.69;5091984;28;20054;-60
2022/05/03 06:35:49;;;;;;;8.27;5.75;;;;;;;12.90;51.46;100505.41;5091266;28;20059;-61
2022/05/03 06:38:17;;;;;;;5.70;5.10;;;;;;;12.94;50.88;100498.84;5089826;28;20048;-53
2022/05/03 06:40:45;;;;;;;6.93;4.97;;;;;;;13.07;50.00;100501.78;5088072;28;20052;-56
2022/05/03 06:43:12;;;;;;;5.88;4.88;;;;;;;13.21;49.78;100494.03;5089716;28;20051;-53
2022/05/03 06:45:41;;;;;;;7.03;5.30;;;;;;;13.36;49.61;100499.13;5080836;28;20044;-55
2022/05/03 06:48:12;;;;;;;6.82;5.32;;;;;;;13.51;49.24;100497.78;5083422;28;20381;-55
2022/05/03 06:50:40;;;;;;;7.60;5.38;;;;;;;13.72;48.59;100497.88;5090096;28;20512;-55
2022/05/03 06:53:07;;;;;;;6.72;4.75;;;;;;;13.86;48.48;100502.41;5091246;28;20052;-53
2022/05/03 06:55:34;;;;;;;5.53;4.93;;;;;;;14.02;48.04;100509.09;5088832;28;20048;-55
2022/05/03 06:58:02;;;;;;;6.55;5.25;;;;;;;14.14;46.98;100506.41;5090998;28;20071;-52
2022/05/03 07:00:29;;;;;;;6.70;5.13;;;;;;;14.29;47.13;100507.81;5090097;28;20071;-54
2022/05/03 07:02:58;;;;;;;6.25;4.75;;;;;;;14.39;46.37;100507.41;5090000;28;21453;-54
2022/05/03 07:05:25;;;;;;;5.57;4.45;;;;;;;14.58;46.50;100521.00;5089431;28;20048;-55
2022/05/03 07:07:53;;;;;;;8.30;4.78;;;;;;;14.78;45.65;100521.34;5089590;28;20044;-53
2022/05/03 07:10:20;;;;;;;5.40;4.78;;;;;;;14.87;45.86;100524.91;5090327;28;20060;-50
2022/05/03 07:12:47;;;;;;;5.88;4.88;;;;;;;15.04;45.16;100529.56;5092446;28;20416;-56
2022/05/03 07:15:14;;;;;;;8.13;5.32;;;;;;;15.08;45.66;100529.72;5093916;28;20047;-52
2022/05/03 07:23:15;;;;;;;6.30;4.90;;;;;;;16.59;40.39;100519.66;5088535;28;20062;-52
2022/05/03 07:25:44;;;;;;;6.60;4.60;;;;;;;17.27;39.08;100526.50;5093739;28;20048;-56
2022/05/03 07:28:12;;;;;;;6.43;4.43;;;;;;;17.64;38.22;100517.88;5092734;28;20051;-55
2022/05/03 07:30:39;;;;;;;6.53;4.45;;;;;;;18.00;37.85;100516.81;5094565;28;21485;-51
2022/05/03 07:33:07;;;;;;;5.97;4.50;;;;;;;18.72;36.91;100515.69;5092586;28;20059;-55
2022/05/03 07:35:36;;;;;;;6.30;5.22;;;;;;;19.19;36.44;100519.53;5093445;28;20051;-54
2022/05/03 07:38:03;;;;;;;5.95;4.28;;;;;;;19.88;34.85;100511.19;5092315;28;20047;-57
2022/05/03 07:40:31;;;;;;;5.50;4.38;;;;;;;20.72;33.83;100514.97;5094191;28;20052;-53
2022/05/03 07:42:59;;;;;;;5.90;4.22;;;;;;;21.49;32.61;100507.88;5094175;28;20051;-57
2022/05/03 07:45:26;;;;;;;5.72;4.68;;;;;;;22.15;31.85;100510.13;5093379;28;20047;-56
2022/05/03 07:47:53;;;;;;;7.13;4.05;;;;;;;22.92;30.61;100507.41;5092828;28;20481;-54
2022/05/03 07:50:21;;;;;;;4.28;3.83;;;;;;;23.62;29.55;100516.63;5093139;28;20043;-56
2022/05/03 07:52:49;;;;;;;4.35;3.63;;;;;;;24.68;28.48;100513.44;5093455;28;20055;-56
2022/05/03 07:55:17;;;;;;;4.07;3.67;;;;;;;25.34;26.74;100503.44;5093541;28;20059;-52
2022/05/03 07:57:44;;;;;;;6.25;4.35;;;;;;;25.69;26.03;100510.97;5092765;28;20056;-57
2022/05/03 08:00:13;;;;;;;5.32;4.00;;;;;;;26.32;25.48;100500.31;5094075;28;20052;-55
2022/05/03 08:02:40;;;;;;;8.32;3.60;;;;;;;26.90;23.96;100511.19;5092947;28;20056;-58
2022/05/03 08:05:10;;;;;;;5.30;4.32;;;;;;;27.08;23.58;100516.66;5093043;28;20396;-58
2022/05/03 08:07:37;;;;;;;4.15;3.72;;;;;;;27.50;22.67;100517.38;5082614;28;20052;-57
2022/05/03 08:10:07;;;;;;;4.57;3.80;;;;;;;28.16;22.04;100516.00;5093889;28;20412;-57
2022/05/03 08:12:35;;;;;;;4.03;3.35;;;;;;;28.64;22.02;100523.38;5092592;28;20048;-57
2022/05/03 08:15:05;;;;;;;5.45;3.80;;;;;;;29.27;20.55;100513.09;5094405;28;20048;-58
2022/05/03 08:17:33;;;;;;;4.43;3.85;;;;;;;29.69;20.43;100522.00;5092508;28;20055;-58
2022/05/03 08:20:00;;;;;;;4.75;3.83;;;;;;;30.19;19.92;100512.19;5091783;28;20484;-58
2022/05/03 08:22:27;;;;;;;7.75;5.32;;;;;;;30.59;19.60;100519.84;5093169;28;20044;-55
2022/05/03 08:24:55;;;;;;;5.60;4.13;;;;;;;31.45;18.21;100520.28;5092768;28;20048;-54
2022/05/03 08:27:23;;;;;;;6.28;3.78;;;;;;;31.94;17.52;100520.78;5093147;28;20052;-55
2022/05/03 08:29:50;;;;;;;;;;;;;;;31.73;17.06;100530.09;5085247;28;20059;-56
2022/05/03 08:32:17;;;;;;;5.35;3.15;;;;;;;32.24;17.11;100527.25;5093400;28;20308;-58
2022/05/03 08:34:45;;;;;;;7.13;3.65;;;;;;;33.02;16.42;100534.41;5092546;28;20067;-57
2022/05/03 08:42:43;;;;;;;4.97;3.45;;;;;;;34.67;14.46;100524.94;5098902;28;20074;-57
2022/05/03 08:45:11;;;;;;;3.85;3.30;;;;;;;35.31;14.66;100529.88;5092950;28;20480;-56
2022/05/03 08:47:39;;;;;;;4.35;3.25;;;;;;;35.69;14.42;100524.81;5092032;28;20051;-57
2022/05/03 08:50:08;;;;;;;4.82;3.17;;;;;;;36.10;13.50;100528.16;5089361;28;20059;-56
2022/05/03 08:52:43;;;;;;;3.90;3.35;;;;;;;37.01;12.89;100534.69;5092983;28;20052;-56
2022/05/03 08:55:12;;;;;;;5.47;3.42;;;;;;;37.52;12.89;100532.72;5092257;28;20070;-56
2022/05/03 08:57:39;;;;;;;5.47;4.10;;;;;;;37.57;12.68;100529.97;5092330;28;20056;-56
2022/05/03 09:00:09;;;;;;;5.43;3.28;;;;;;;38.28;12.20;100524.19;5091444;28;20491;-56
2022/05/03 09:02:42;;;;;;;3.90;3.50;;;;;;;38.78;11.58;100524.06;5091909;28;20055;-57
2022/05/03 09:05:11;;;;;;;4.00;2.90;;;;;;;39.29;11.91;100524.69;5092006;28;20059;-57
2022/05/03 09:07:39;;;;;;;3.90;3.55;;;;;;;39.70;10.83;100523.72;5091639;28;20044;-57
2022/05/03 09:10:18;;;;;;;3.92;2.80;;;;;;;40.02;11.04;100523.72;5092647;28;20056;-57
2022/05/03 09:12:46;;;;;;;3.38;2.90;;;;;;;40.23;10.74;100525.19;5092648;28;20059;-56
2022/05/03 09:15:15;;;;;;;3.90;2.45;;;;;;;40.16;10.91;100531.50;5091796;28;20048;-57
2022/05/03 09:17:44;;;;;;;3.72;3.40;;;;;;;40.80;10.02;100520.44;5074647;28;20479;-57
2022/05/03 09:25:49;;;;;;;3.15;2.78;;;;;;;40.68;9.59;100519.59;5096592;28;20416;-57
2022/05/03 09:28:16;;;;;;;;;;;;;;;40.35;10.36;100518.13;5091782;28;20069;-56
2022/05/03 09:30:50;;;;;;;5.75;2.90;;;;;;;41.01;9.70;100514.41;5089687;28;19920;-56
2022/05/03 09:33:20;;;;;;;3.40;2.50;;;;;;;41.37;9.01;100515.53;5086393;28;20060;-57
2022/05/03 09:35:48;;;;;;;3.80;2.13;;;;;;;41.31;9.07;100520.63;5091208;28;20052;-57
2022/05/03 09:38:16;;;;;;;3.22;2.50;;;;;;;41.68;9.01;100517.44;5090725;28;20044;-57
2022/05/03 09:40:45;;;;;;;2.63;1.80;;;;;;;41.56;8.26;100513.72;5091304;28;20500;-57
2022/05/03 09:43:13;;;;;;;2.33;2.13;;;;;;;42.12;8.23;100520.88;5092222;28;20059;-57
2022/05/03 09:45:41;;;;;;;3.35;1.90;;;;;;;42.18;7.98;100512.88;5091726;28;20052;-57
2022/05/03 09:48:10;;;;;;;3.05;2.30;;;;;;;42.73;7.61;100522.81;5091946;28;20059;-57
2022/05/03 09:50:40;;;;;;;2.72;2.20;;;;;;;42.93;7.65;100523.81;5091853;28;20051;-57
2022/05/03 09:53:10;;;;;;;3.10;2.13;;;;;;;43.31;7.07;100519.03;5092247;28;20503;-57
2022/05/03 09:55:40;;;;;;;2.08;1.85;;;;;;;43.56;7.11;100519.91;5091442;28;20055;-57
2022/05/03 09:58:09;;;;;;;3.60;2.10;;;;;;;43.01;7.41;100516.03;5088904;28;20501;-57
2022/05/03 10:00:38;;;;;;;2.65;1.90;;;;;;;42.77;7.75;100519.59;5086927;28;20059;-57
2022/05/03 10:03:07;;;;;;;4.35;2.17;;;;;;;42.91;7.67;100517.69;5090983;28;20055;-57
2022/05/03 10:05:37;;;;;;;3.10;2.20;;;;;;;42.77;8.05;100517.44;5091694;28;20044;-57
2022/05/03 10:08:05;;;;;;;2.72;2.13;;;;;;;43.29;7.98;100509.22;5091984;28;20415;-57
2022/05/03 10:10:33;;;;;;;2.30;1.80;;;;;;;43.34;7.52;100505.44;5092495;28;20048;-57
2022/05/03 10:13:01;;;;;;;2.83;2.10;;;;;;;43.97;7.67;100512.34;5091375;28;20052;-58
2022/05/03 10:21:14;;;;;;;2.90;2.03;;;;;;;43.62;7.77;100513.19;5097476;28;20059;-57
2022/05/03 10:23:42;;;;;;;2.60;1.80;;;;;;;43.75;7.66;100493.63;5092181;28;20056;-58
2022/05/03 10:26:12;;;;;;;;;;;;;;;43.27;7.54;100500.16;5091970;28;20055;-58
2022/05/03 10:29:08;;;;;;;2.58;2.05;;;;;;;43.41;7.12;100496.06;5072512;28;19920;-58
2022/05/03 10:31:57;;;;;;;3.90;2.22;;;;;;;43.83;7.56;100485.03;5075773;28;20052;-58
2022/05/03 10:34:45;;;;;;;2.58;1.70;;;;;;;43.93;7.19;100491.31;5072426;28;20457;-58
2022/05/03 10:37:16;;;;;;;1.83;1.67;;;;;;;44.15;7.50;100496.19;5076855;28;20511;-58
2022/05/03 10:39:53;;;;;;;2.30;2.10;;;;;;;43.63;8.00;100494.25;5092143;28;20400;-58
2022/05/03 10:42:23;;;;;;;3.05;1.70;;;;;;;43.63;7.45;100488.41;5090912;28;20050;-58
2022/05/03 10:44:59;;;;;;;2.67;1.85;;;;;;;44.22;7.88;100483.81;5088168;28;20048;-58
2022/05/03 10:47:52;;;;;;;3.00;1.92;;;;;;;43.86;6.80;100480.97;5088998;28;20051;-58
2022/05/03 10:50:26;;;;;;;2.65;1.73;;;;;;;43.96;7.10;100482.22;5077204;28;20048;-59
2022/05/03 10:53:32;;;;;;;3.00;1.75;;;;;;;43.83;7.32;100481.28;5105329;28;20055;-61
2022/05/03 10:56:07;;;;;;;2.83;2.30;;;;;;;43.18;7.71;100484.47;5101557;28;20408;-59
2022/05/03 10:58:36;;;;;;;4.82;2.55;;;;;;;42.66;7.85;100487.44;5093486;28;20055;-60
2022/05/03 11:01:09;;;;;;;3.78;2.40;;;;;;;42.95;7.40;100480.91;5094767;28;20059;-59
2022/05/03 11:03:37;;;;;;;2.83;2.33;;;;;;;42.48;7.54;100475.00;5094913;28;20063;-59
2022/05/03 11:06:39;;;;;;;4.18;2.60;;;;;;;42.51;8.28;100482.72;5094014;28;20047;-58
2022/05/03 11:09:11;;;;;;;2.90;2.60;;;;;;;42.60;8.03;100478.66;5092686;28;20059;-59
2022/05/03 11:12:00;;;;;;;3.30;2.88;;;;;;;42.50;7.91;100474.47;5093115;28;20170;-59
2022/05/03 11:14:50;;;;;;;2.70;2.50;;;;;;;41.61;8.28;100473.31;5087305;28;20431;-59
2022/05/03 11:17:19;;;;;;;2.92;2.53;;;;;;;41.99;9.25;100457.81;5093894;28;20040;-59
2022/05/03 11:19:53;;;;;;;5.15;2.80;;;;;;;41.72;9.44;100461.59;5090938;28;20055;-59
2022/05/03 11:22:22;;;;;;;3.80;2.80;;;;;;;41.65;8.32;100456.31;5090583;28;20059;-59
2022/05/03 11:24:51;;;;;;;3.90;2.70;;;;;;;41.69;9.51;100454.69;5089404;28;20048;-59
2022/05/03 11:27:20;;;;;;;4.05;3.33;;;;;;;41.62;9.10;100458.16;5089496;28;20040;-59
2022/05/03 11:29:50;;;;;;;4.13;3.00;;;;;;;41.35;9.21;100456.81;5089655;28;20493;-60
2022/05/03 11:32:28;;;;;;;3.33;2.88;;;;;;;41.26;9.16;100454.94;5081637;28;20058;-59
2022/05/03 11:35:00;;;;;;;4.10;3.70;;;;;;;41.52;8.67;100454.69;5096474;28;20417;-59
2022/05/03 11:37:28;;;;;;;4.00;3.60;;;;;;;41.72;9.17;100452.81;5092219;28;20060;-59
2022/05/03 11:40:02;;;;;;;4.40;3.28;;;;;;;41.65;8.73;100450.47;5096331;28;20059;-59
2022/05/03 11:42:37;;;;;;;3.58;3.20;;;;;;;42.04;8.48;100443.72;5094496;28;20048;-59
2022/05/03 11:45:05;;;;;;;5.60;3.70;;;;;;;41.55;8.39;100439.00;5094206;28;20056;-59
2022/05/03 11:47:35;;;;;;;4.20;3.53;;;;;;;41.43;8.84;100439.53;5084931;28;20040;-59
2022/05/03 11:50:04;;;;;;;3.65;3.35;;;;;;;41.27;9.16;100441.16;5094500;28;20477;-59
2022/05/03 11:58:16;;;;;;;3.95;3.42;;;;;;;41.05;9.18;100433.91;5036353;28;20543;-59
2022/05/03 12:00:48;;;;;;;3.53;3.22;;;;;;;40.61;9.89;100438.31;5076418;28;20052;-59
2022/05/03 12:03:15;;;;;;;3.75;3.30;;;;;;;40.17;9.91;100428.88;5092116;28;20051;-59
2022/05/03 12:05:57;;;;;;;4.07;3.78;;;;;;;40.58;9.76;100424.78;5091704;28;20056;-59
2022/05/03 12:08:25;;;;;;;5.30;3.85;;;;;;;40.11;9.29;100424.31;5091128;28;20051;-58
2022/05/03 12:10:52;;;;;;;4.13;3.50;;;;;;;39.88;10.13;100420.47;5093677;28;20059;-59
2022/05/03 12:13:29;;;;;;;3.53;3.22;;;;;;;39.14;9.88;100424.91;5091971;28;20052;-59
2022/05/03 12:16:15;;;;;;;4.93;3.50;;;;;;;38.38;10.57;100432.53;5094047;28;20059;-58
2022/05/03 12:18:45;;;;;;;3.95;3.53;;;;;;;38.59;11.84;100420.91;5088223;28;20051;-58
2022/05/03 12:21:14;;;;;;;3.95;3.38;;;;;;;38.86;10.61;100415.91;5093609;28;20055;-58
2022/05/03 12:23:45;;;;;;;4.45;3.60;;;;;;;38.27;10.91;100417.84;5091860;28;20408;-59